createdAt,value
2023-02-11T00:00:09.994Z,31.40
2023-02-11T00:02:40.391Z,34.10
2023-02-11T00:05:21.991Z,31.90
2023-02-11T00:08:21.032Z,38.60
2023-02-11T00:11:19.218Z,37.00
2023-02-11T00:14:14.540Z,34.70
2023-02-11T00:16:44.982Z,44.40
2023-02-11T00:21:49.779Z,35.00
2023-02-11T00:24:19.817Z,36.20
2023-02-11T00:27:10.414Z,34.40
2023-02-11T00:30:42.295Z,40.20
2023-02-11T00:33:16.279Z,39.40
2023-02-11T00:36:18.305Z,37.40
2023-02-11T00:38:54.468Z,36.70
2023-02-11T00:41:48.386Z,34.30
2023-02-11T00:44:22.142Z,35.80
2023-02-11T00:47:29.069Z,39.30
2023-02-11T00:50:05.834Z,36.90
2023-02-11T00:52:48.852Z,35.30
2023-02-11T00:55:34.807Z,40.30
2023-02-11T00:58:23.048Z,36.90
2023-02-11T01:01:16.130Z,37.30
2023-02-11T01:04:06.430Z,33.00
2023-02-11T01:07:04.218Z,34.30
2023-02-11T01:09:31.765Z,34.10
2023-02-11T01:12:14.408Z,44.40
2023-02-11T01:14:44.200Z,38.20
2023-02-11T01:17:18.734Z,34.60
2023-02-11T01:20:07.136Z,35.80
2023-02-11T01:22:39.633Z,36.00
2023-02-11T01:25:59.888Z,32.40
2023-02-11T01:28:55.366Z,34.80
2023-02-11T01:31:22.712Z,33.00
2023-02-11T01:34:10.701Z,31.10
2023-02-11T01:36:38.878Z,32.70
2023-02-11T01:39:15.143Z,33.70
2023-02-11T01:42:29.016Z,33.20
2023-02-11T01:46:15.560Z,32.80
2023-02-11T01:49:19.889Z,31.00
2023-02-11T01:53:15.308Z,33.10
2023-02-11T01:57:05.113Z,31.20
2023-02-11T02:01:11.389Z,29.70
2023-02-11T02:04:17.348Z,30.80
2023-02-11T02:07:06.765Z,32.20
2023-02-11T02:10:10.021Z,30.60
2023-02-11T02:12:49.185Z,32.60
2023-02-11T02:15:53.489Z,31.40
2023-02-11T02:19:28.057Z,30.50
2023-02-11T02:22:45.497Z,31.60
2023-02-11T02:26:08.653Z,29.30
2023-02-11T02:29:28.245Z,31.20
2023-02-11T02:33:05.746Z,32.10
2023-02-11T02:36:35.533Z,33.10
2023-02-11T02:39:38.959Z,33.20
2023-02-11T02:42:43.260Z,31.60
2023-02-11T02:45:28.033Z,31.00
2023-02-11T02:48:06.667Z,33.00
2023-02-11T02:50:36.876Z,32.00
2023-02-11T02:53:27.538Z,32.30
2023-02-11T02:56:38.556Z,31.60
2023-02-11T03:00:04.110Z,33.80
2023-02-11T03:03:38.929Z,35.90
2023-02-11T03:07:22.357Z,33.20
2023-02-11T03:10:34.091Z,36.10
2023-02-11T03:13:17.679Z,33.60
2023-02-11T03:16:42.138Z,31.60
2023-02-11T03:19:37.575Z,34.20
2023-02-11T03:22:41.490Z,34.40
2023-02-11T03:25:14.397Z,33.10
2023-02-11T03:28:34.891Z,36.30
2023-02-11T03:31:31.052Z,35.20
2023-02-11T03:34:38.583Z,33.30
2023-02-11T03:38:06.573Z,35.00
2023-02-11T03:40:52.091Z,33.90
2023-02-11T03:43:25.201Z,32.80
2023-02-11T03:45:57.611Z,34.60
2023-02-11T03:49:02.194Z,33.70
2023-02-11T03:51:32.899Z,33.50
2023-02-11T03:57:01.910Z,31.50
2023-02-11T04:00:05.741Z,34.30
2023-02-11T04:03:31.613Z,33.50
2023-02-11T04:06:44.467Z,32.70
2023-02-11T04:09:26.195Z,30.90
2023-02-11T04:11:57.097Z,34.20
2023-02-11T04:14:38.102Z,34.60
2023-02-11T04:17:16.283Z,35.50
2023-02-11T04:19:59.236Z,32.60
2023-02-11T04:22:38.033Z,33.50
2023-02-11T04:25:31.154Z,32.40
2023-02-11T04:28:37.549Z,31.20
2023-02-11T04:31:58.382Z,30.80
2023-02-11T04:35:10.334Z,32.40
2023-02-11T04:38:07.586Z,34.70
2023-02-11T04:41:04.958Z,32.20
2023-02-11T04:44:07.227Z,34.00
2023-02-11T04:47:00.919Z,33.30
2023-02-11T04:49:57.084Z,33.00
2023-02-11T04:52:27.777Z,32.20
2023-02-11T04:55:43.023Z,36.80
2023-02-11T04:58:36.964Z,35.80
2023-02-11T05:01:53.417Z,35.20
2023-02-11T05:04:27.352Z,36.90
2023-02-11T05:07:35.439Z,37.40
2023-02-11T05:10:31.241Z,35.20
2023-02-11T05:13:12.626Z,36.90
2023-02-11T05:16:11.233Z,36.30
2023-02-11T05:19:11.391Z,38.40
2023-02-11T05:21:53.136Z,42.30
2023-02-11T05:24:27.746Z,52.70
2023-02-11T05:27:25.947Z,42.50
2023-02-11T05:30:18.468Z,40.50
2023-02-11T05:33:10.706Z,37.40
2023-02-11T05:35:49.360Z,39.40
2023-02-11T05:38:30.925Z,35.90
2023-02-11T05:40:58.619Z,33.40
2023-02-11T05:43:51.115Z,35.20
2023-02-11T05:46:24.767Z,35.90
2023-02-11T05:49:15.481Z,34.70
2023-02-11T05:51:42.401Z,33.70
2023-02-11T05:54:13.159Z,36.60
2023-02-11T05:56:46.168Z,37.30
2023-02-11T05:59:14.564Z,36.90
2023-02-11T06:01:47.923Z,43.80
2023-02-11T06:04:21.045Z,37.20
2023-02-11T06:07:16.897Z,37.10
2023-02-11T06:09:45.071Z,36.80
2023-02-11T06:12:24.680Z,37.40
2023-02-11T06:15:15.313Z,38.50
2023-02-11T06:17:48.345Z,37.30
2023-02-11T06:20:22.020Z,38.20
2023-02-11T06:22:52.193Z,37.30
2023-02-11T06:25:32.897Z,38.60
2023-02-11T06:28:10.473Z,40.60
2023-02-11T06:30:58.769Z,37.10
2023-02-11T06:33:56.637Z,35.40
2023-02-11T06:37:00.559Z,35.70
2023-02-11T06:39:30.878Z,34.00
2023-02-11T06:41:58.629Z,36.40
2023-02-11T06:44:29.413Z,37.00
2023-02-11T06:47:04.433Z,38.10
2023-02-11T06:49:46.647Z,39.50
2023-02-11T06:52:22.548Z,35.70
2023-02-11T06:55:01.022Z,39.10
2023-02-11T06:58:12.545Z,42.40
2023-02-11T07:01:07.318Z,38.40
2023-02-11T07:04:09.383Z,40.70
2023-02-11T07:06:46.784Z,39.90
2023-02-11T07:09:23.422Z,39.90
2023-02-11T07:12:33.681Z,38.80
2023-02-11T07:15:37.972Z,38.90
2023-02-11T07:18:39.376Z,37.90
2023-02-11T07:21:57.420Z,39.10
2023-02-11T07:24:53.935Z,37.10
2023-02-11T07:27:40.055Z,36.50
2023-02-11T07:30:18.896Z,35.90
2023-02-11T07:32:46.299Z,38.80
2023-02-11T07:35:28.457Z,37.40
2023-02-11T07:37:58.723Z,33.60
2023-02-11T07:40:32.487Z,35.50
2023-02-11T07:43:01.328Z,35.00
2023-02-11T07:45:51.108Z,35.10
2023-02-11T07:48:30.279Z,37.60
2023-02-11T07:51:10.179Z,34.60
2023-02-11T07:53:40.604Z,35.50
2023-02-11T07:56:29.811Z,36.10
2023-02-11T07:59:01.256Z,33.40
2023-02-11T08:01:28.978Z,38.20
2023-02-11T08:04:02.678Z,36.30
2023-02-11T08:06:46.032Z,37.80
2023-02-11T08:09:20.161Z,39.90
2023-02-11T08:11:55.851Z,40.00
2023-02-11T08:14:33.921Z,36.50
2023-02-11T08:17:09.895Z,35.20
2023-02-11T08:19:37.174Z,31.70
2023-02-11T08:22:13.692Z,34.00
2023-02-11T08:24:41.922Z,35.30
2023-02-11T08:27:21.498Z,33.70
2023-02-11T08:29:51.359Z,30.10
2023-02-11T08:32:25.424Z,30.20
2023-02-11T08:34:53.110Z,31.20
2023-02-11T08:37:22.978Z,32.20
2023-02-11T08:39:53.469Z,29.50
2023-02-11T08:42:23.146Z,28.10
2023-02-11T08:44:53.343Z,30.00
2023-02-11T08:47:23.338Z,29.10
2023-02-11T08:49:50.207Z,31.70
2023-02-11T08:52:28.341Z,27.70
2023-02-11T08:55:01.816Z,26.30
2023-02-11T08:57:34.900Z,29.10
2023-02-11T09:00:02.760Z,27.40
2023-02-11T09:02:37.640Z,33.10
2023-02-11T09:05:05.059Z,28.10
2023-02-11T09:07:36.751Z,31.60
2023-02-11T09:10:07.281Z,29.90
2023-02-11T09:12:42.342Z,30.30
2023-02-11T09:15:09.803Z,29.80
2023-02-11T09:17:39.401Z,31.10
2023-02-11T09:20:13.007Z,31.60
2023-02-11T09:22:41.237Z,32.00
2023-02-11T09:27:47.608Z,32.00
2023-02-11T09:30:14.895Z,30.90
2023-02-11T09:32:54.653Z,30.80
2023-02-11T09:35:24.156Z,33.80
2023-02-11T09:37:51.880Z,39.00
2023-02-11T09:40:20.133Z,49.30
2023-02-11T09:43:09.055Z,40.90
2023-02-11T09:45:53.034Z,32.50
2023-02-11T09:48:29.277Z,32.40
2023-02-11T09:51:01.900Z,31.50
2023-02-11T09:53:35.922Z,35.10
2023-02-11T09:56:16.219Z,28.80
2023-02-11T09:58:54.402Z,31.30
2023-02-11T10:01:45.274Z,32.70
2023-02-11T10:04:22.318Z,33.20
2023-02-11T10:07:24.714Z,32.60
2023-02-11T10:10:10.710Z,29.20
2023-02-11T10:12:49.522Z,29.00
2023-02-11T10:16:25.979Z,27.90
2023-02-11T10:19:35.731Z,31.10
2023-02-11T10:22:13.229Z,30.50
2023-02-11T10:24:41.735Z,52.10
2023-02-11T10:27:18.069Z,29.60
2023-02-11T10:30:07.232Z,30.90
2023-02-11T10:33:20.397Z,35.40
2023-02-11T10:35:52.005Z,30.60
2023-02-11T10:38:36.566Z,28.60
2023-02-11T10:41:12.206Z,75.20
2023-02-11T10:43:39.456Z,33.60
2023-02-11T10:46:26.818Z,29.30
2023-02-11T10:48:59.394Z,28.40
2023-02-11T10:51:33.676Z,31.20
2023-02-11T10:54:24.543Z,25.90
2023-02-11T10:57:22.399Z,25.50
2023-02-11T10:59:59.872Z,26.50
2023-02-11T11:02:35.798Z,26.70
2023-02-11T11:05:16.340Z,27.50
2023-02-11T11:08:15.203Z,26.10
2023-02-11T11:10:50.370Z,23.30
2023-02-11T11:13:58.167Z,25.40
2023-02-11T11:16:43.052Z,24.50
2023-02-11T11:19:21.955Z,25.00
2023-02-11T11:22:34.062Z,23.90
2023-02-11T11:25:01.684Z,25.80
2023-02-11T11:27:31.458Z,24.00
2023-02-11T11:30:14.338Z,24.40
2023-02-11T11:32:57.351Z,24.30
2023-02-11T11:35:33.101Z,22.60
2023-02-11T11:41:21.619Z,23.30
2023-02-11T11:44:24.285Z,24.80
2023-02-11T11:47:05.006Z,23.10
2023-02-11T11:49:42.100Z,23.90
2023-02-11T11:52:38.332Z,23.60
2023-02-11T11:55:54.286Z,22.80
2023-02-11T11:58:22.497Z,24.60
2023-02-11T12:01:19.399Z,25.60
2023-02-11T12:04:32.895Z,24.20
2023-02-11T12:07:25.444Z,24.70
2023-02-11T12:09:59.440Z,26.90
2023-02-11T12:12:44.712Z,24.60
2023-02-11T12:15:50.821Z,25.50
2023-02-11T12:18:33.521Z,27.60
2023-02-11T12:21:14.500Z,27.30
2023-02-11T12:24:09.620Z,25.80
2023-02-11T12:27:34.244Z,27.00
2023-02-11T12:30:15.532Z,29.60
2023-02-11T12:33:08.680Z,30.80
2023-02-11T12:36:02.480Z,30.20
2023-02-11T12:39:06.548Z,29.30
2023-02-11T12:42:05.632Z,26.90
2023-02-11T12:45:12.759Z,29.60
2023-02-11T12:48:22.956Z,27.60
2023-02-11T12:51:00.640Z,27.20
2023-02-11T12:53:53.950Z,26.80
2023-02-11T12:56:27.024Z,30.50
2023-02-11T12:59:13.107Z,27.80
2023-02-11T13:01:44.183Z,27.80
2023-02-11T13:04:58.992Z,27.90
2023-02-11T13:07:37.115Z,25.70
2023-02-11T13:10:17.078Z,26.70
2023-02-11T13:13:08.504Z,25.50
2023-02-11T13:15:38.295Z,26.20
2023-02-11T13:18:39.059Z,25.50
2023-02-11T13:21:25.773Z,27.30
2023-02-11T13:24:48.112Z,25.50
2023-02-11T13:27:58.854Z,23.50
2023-02-11T13:30:40.671Z,25.00
2023-02-11T13:33:17.707Z,24.70
2023-02-11T13:36:19.787Z,26.20
2023-02-11T13:38:58.312Z,25.30
2023-02-11T13:41:42.177Z,25.40
2023-02-11T13:44:22.444Z,26.50
2023-02-11T13:46:58.246Z,24.90
2023-02-11T13:49:40.683Z,26.40
2023-02-11T13:52:21.655Z,26.40
2023-02-11T13:54:52.978Z,28.10
2023-02-11T13:57:44.714Z,31.70
2023-02-11T14:00:47.194Z,25.90
2023-02-11T14:03:32.524Z,26.70
2023-02-11T14:06:27.644Z,30.00
2023-02-11T14:09:10.899Z,30.50
2023-02-11T14:11:45.216Z,28.60
2023-02-11T14:14:28.895Z,29.10
2023-02-11T14:16:59.207Z,27.60
2023-02-11T14:19:40.322Z,28.10
2023-02-11T14:22:10.496Z,29.60
2023-02-11T14:24:47.551Z,26.60
2023-02-11T14:27:21.450Z,28.60
2023-02-11T14:29:54.043Z,28.30
2023-02-11T14:33:07.210Z,28.30
2023-02-11T14:35:45.782Z,28.40
2023-02-11T14:38:35.163Z,28.30
2023-02-11T14:41:11.114Z,29.10
2023-02-11T14:43:41.533Z,28.20
2023-02-11T16:06:40.617Z,28.40
2023-02-11T16:09:34.018Z,30.30
2023-02-11T16:12:27.285Z,31.10
2023-02-11T16:14:56.828Z,32.80
2023-02-11T16:17:30.648Z,34.20
2023-02-11T16:19:58.032Z,33.20
2023-02-11T16:22:38.431Z,31.40
2023-02-11T16:25:25.964Z,31.90
2023-02-11T16:28:26.193Z,28.60
2023-02-11T16:30:56.818Z,31.60
2023-02-11T16:33:30.193Z,31.40
2023-02-11T16:36:27.301Z,28.00
2023-02-11T16:38:57.012Z,27.70
2023-02-11T16:41:24.123Z,31.20
2023-02-11T16:43:51.613Z,30.50
2023-02-11T16:46:26.747Z,31.70
2023-02-11T16:49:39.099Z,31.00
2023-02-11T16:52:08.096Z,31.70
2023-02-11T16:54:35.921Z,32.50
2023-02-11T16:57:20.784Z,28.90
2023-02-11T16:59:51.373Z,30.70
2023-02-11T17:02:30.434Z,31.80
2023-02-11T17:05:04.989Z,32.70
2023-02-11T17:07:37.897Z,30.90
2023-02-11T17:10:17.376Z,33.30
2023-02-11T17:12:48.230Z,26.20
2023-02-11T17:15:18.893Z,30.20
2023-02-11T17:17:51.207Z,31.40
2023-02-11T17:20:24.209Z,29.30
2023-02-11T17:22:54.295Z,30.30
2023-02-11T17:28:23.178Z,28.50
2023-02-11T17:30:50.738Z,29.50
2023-02-11T17:33:53.185Z,29.00
2023-02-11T17:36:23.518Z,31.80
2023-02-11T17:38:55.156Z,31.50
2023-02-11T17:41:24.934Z,29.70
2023-02-11T17:43:57.908Z,29.70
2023-02-11T17:46:35.519Z,29.90
2023-02-11T17:49:03.660Z,33.40
2023-02-11T17:51:35.220Z,29.70
2023-02-11T17:54:19.992Z,30.10
2023-02-11T17:56:50.532Z,30.80
2023-02-11T17:59:29.398Z,30.70
2023-02-11T18:01:56.604Z,30.00
2023-02-11T18:04:27.550Z,33.70
2023-02-11T18:09:47.705Z,33.90
2023-02-11T18:12:25.288Z,31.50
2023-02-11T18:14:58.116Z,33.30
2023-02-11T18:17:28.525Z,34.50
2023-02-11T18:19:56.990Z,37.40
2023-02-11T18:22:24.783Z,32.60
2023-02-11T18:25:05.079Z,35.00
2023-02-11T18:27:37.287Z,31.00
2023-02-11T18:30:05.682Z,31.40
2023-02-11T18:32:38.335Z,32.40
2023-02-11T18:37:59.872Z,31.30
2023-02-11T18:40:29.789Z,30.60
2023-02-11T18:43:00.211Z,31.70
2023-02-11T18:45:31.371Z,32.30
2023-02-11T18:48:01.655Z,28.00
2023-02-11T18:50:31.296Z,24.70
2023-02-11T18:52:58.874Z,26.90
2023-02-11T18:55:36.658Z,28.10
2023-02-11T18:58:04.375Z,30.10
2023-02-11T19:00:35.034Z,29.80
2023-02-11T19:03:08.218Z,27.10
2023-02-11T19:05:49.022Z,27.70
2023-02-11T19:08:17.288Z,29.40
2023-02-11T19:10:49.553Z,27.00
2023-02-11T19:13:16.894Z,32.10
2023-02-11T19:15:48.760Z,26.60
2023-02-11T19:18:16.539Z,26.10
2023-02-11T19:20:46.740Z,26.60
2023-02-11T19:23:14.089Z,27.50
2023-02-11T19:25:46.056Z,30.20
2023-02-11T19:28:13.905Z,28.80
2023-02-11T19:30:41.527Z,28.50
2023-02-11T19:33:25.937Z,27.10
2023-02-11T19:35:55.846Z,29.50
2023-02-11T19:38:23.818Z,24.10
2023-02-11T19:40:58.661Z,24.70
2023-02-11T19:43:29.800Z,25.10
2023-02-11T19:45:59.972Z,26.30
2023-02-11T19:48:30.552Z,29.40
2023-02-11T19:51:07.601Z,28.40
2023-02-11T19:53:38.965Z,29.30
2023-02-11T19:56:10.288Z,30.20
2023-02-11T19:58:38.077Z,28.20
2023-02-11T20:01:19.318Z,25.50
2023-02-11T20:03:59.415Z,26.30
2023-02-11T20:06:33.801Z,25.60
2023-02-11T20:09:07.150Z,25.50
2023-02-11T20:11:34.603Z,28.30
2023-02-11T20:14:07.673Z,31.90
2023-02-11T20:16:49.845Z,28.20
2023-02-11T20:19:24.997Z,27.40
2023-02-11T20:21:56.155Z,23.30
2023-02-11T20:24:24.560Z,23.80
2023-02-11T20:26:57.739Z,27.10
2023-02-11T20:29:31.366Z,26.70
2023-02-11T20:32:04.120Z,26.90
2023-02-11T20:34:32.420Z,26.00
2023-02-11T20:37:04.330Z,26.80
2023-02-11T20:39:37.435Z,27.80
2023-02-11T20:42:04.980Z,22.10
2023-02-11T20:44:43.083Z,25.80
2023-02-11T20:47:13.821Z,24.80
2023-02-11T20:49:41.112Z,25.40
2023-02-11T20:52:08.585Z,28.30
2023-02-11T20:54:36.291Z,27.90
2023-02-11T20:57:08.281Z,31.70
2023-02-11T20:59:36.154Z,30.30
2023-02-11T21:02:24.839Z,24.60
2023-02-11T21:04:58.003Z,26.40
2023-02-11T21:07:29.404Z,28.90
2023-02-11T21:09:57.467Z,28.40
2023-02-11T21:12:24.543Z,27.30
2023-02-11T21:14:52.140Z,27.40
2023-02-11T21:17:38.762Z,28.00
2023-02-11T21:20:07.242Z,29.00
2023-02-11T21:22:34.854Z,23.10
2023-02-11T21:25:06.450Z,22.30
2023-02-11T21:27:37.227Z,26.90
2023-02-11T21:30:11.214Z,25.20
2023-02-11T21:32:39.007Z,27.00
2023-02-11T21:35:09.914Z,25.30
2023-02-11T21:37:58.307Z,25.60
2023-02-11T21:40:29.517Z,22.00
2023-02-11T21:43:08.564Z,25.20
2023-02-11T21:45:48.101Z,24.30
2023-02-11T21:48:15.867Z,24.60
2023-02-11T21:50:58.267Z,28.00
2023-02-11T21:53:25.483Z,28.30
2023-02-11T21:56:14.846Z,28.10
2023-02-11T22:01:43.908Z,25.00
2023-02-11T22:04:17.485Z,26.60
2023-02-11T22:09:14.758Z,31.20
2023-02-11T22:12:09.016Z,28.60
2023-02-11T22:14:38.770Z,30.50
2023-02-11T22:17:08.910Z,25.60
2023-02-11T22:19:44.075Z,26.10
2023-02-11T22:22:18.253Z,26.90
2023-02-11T22:24:56.961Z,27.60
2023-02-11T22:27:31.976Z,28.40
2023-02-11T22:30:05.725Z,31.30
2023-02-11T22:32:38.819Z,31.50
2023-02-11T22:35:09.716Z,26.50
2023-02-11T22:37:38.688Z,27.20
2023-02-11T22:40:10.138Z,26.40
2023-02-11T22:42:40.788Z,31.50
2023-02-11T22:45:17.359Z,29.30
2023-02-11T22:47:50.546Z,30.30
2023-02-11T22:50:25.248Z,25.30
2023-02-11T22:52:53.686Z,25.60
2023-02-11T22:55:29.479Z,24.30
2023-02-11T22:57:57.008Z,27.70
2023-02-11T23:00:24.454Z,31.40
2023-02-11T23:02:59.572Z,29.50
2023-02-11T23:05:27.455Z,32.80
2023-02-11T23:08:44.053Z,24.50
2023-02-11T23:12:32.427Z,26.10
2023-02-11T23:16:40.241Z,28.10
2023-02-11T23:19:53.298Z,30.20
2023-02-11T23:22:25.631Z,32.40
2023-02-11T23:25:14.747Z,30.30
2023-02-11T23:28:18.916Z,25.90
2023-02-11T23:31:20.939Z,26.60
2023-02-11T23:33:55.051Z,29.50
2023-02-11T23:37:00.520Z,32.10
2023-02-11T23:39:46.457Z,34.00
2023-02-11T23:42:24.061Z,33.40
2023-02-11T23:45:11.519Z,27.60
2023-02-11T23:47:51.080Z,28.30
2023-02-11T23:50:18.650Z,28.50
2023-02-11T23:52:49.012Z,31.30
2023-02-11T23:55:39.996Z,31.00
2023-02-11T23:58:10.875Z,29.60
